sensor_id;sensor_type;location;lat;lon;timestamp;temperature;humidity
7516;DHT22;3799;47.184;8.538;2023-08-07T00:01:20;14.40;99.90
7516;DHT22;3799;47.184;8.538;2023-08-07T00:03:48;14.20;99.90
7516;DHT22;3799;47.184;8.538;2023-08-07T00:06:15;14.50;99.90
7516;DHT22;3799;47.184;8.538;2023-08-07T00:08:42;14.50;99.90
7516;DHT22;3799;47.184;8.538;2023-08-07T00:11:17;14.50;99.90
7516;DHT22;3799;47.184;8.538;2023-08-07T00:13:45;14.60;99.90
7516;DHT22;3799;47.184;8.538;2023-08-07T00:16:15;14.70;99.90
7516;DHT22;3799;47.184;8.538;2023-08-07T00:18:42;14.70;99.90
7516;DHT22;3799;47.184;8.538;2023-08-07T00:21:10;14.60;99.90
7516;DHT22;3799;47.184;8.538;2023-08-07T00:23:40;14.70;99.90
7516;DHT22;3799;47.184;8.538;2023-08-07T00:26:07;14.60;99.90
7516;DHT22;3799;47.184;8.538;2023-08-07T00:28:34;14.70;99.90
7516;DHT22;3799;47.184;8.538;2023-08-07T00:31:02;14.70;99.90
7516;DHT22;3799;47.184;8.538;2023-08-07T00:33:29;14.50;99.90
7516;DHT22;3799;47.184;8.538;2023-08-07T00:35:56;14.60;99.90
7516;DHT22;3799;47.184;8.538;2023-08-07T00:38:24;14.20;99.90
7516;DHT22;3799;47.184;8.538;2023-08-07T00:40:51;14.40;99.90
7516;DHT22;3799;47.184;8.538;2023-08-07T00:43:18;14.20;99.90
7516;DHT22;3799;47.184;8.538;2023-08-07T00:45:46;14.20;99.90
7516;DHT22;3799;47.184;8.538;2023-08-07T00:48:16;14.00;99.90
7516;DHT22;3799;47.184;8.538;2023-08-07T00:50:45;14.00;99.90
7516;DHT22;3799;47.184;8.538;2023-08-07T00:53:13;13.90;99.90
7516;DHT22;3799;47.184;8.538;2023-08-07T00:55:42;13.60;99.90
7516;DHT22;3799;47.184;8.538;2023-08-07T00:58:09;13.70;99.90
7516;DHT22;3799;47.184;8.538;2023-08-07T01:00:37;13.30;99.90
7516;DHT22;3799;47.184;8.538;2023-08-07T01:03:05;13.30;99.90
7516;DHT22;3799;47.184;8.538;2023-08-07T01:05:34;13.40;99.90
7516;DHT22;3799;47.184;8.538;2023-08-07T01:08:02;13.20;99.90
7516;DHT22;3799;47.184;8.538;2023-08-07T01:10:39;13.30;99.90
7516;DHT22;3799;47.184;8.538;2023-08-07T01:13:20;13.30;99.90
7516;DHT22;3799;47.184;8.538;2023-08-07T01:15:55;13.20;99.90
7516;DHT22;3799;47.184;8.538;2023-08-07T01:18:27;13.30;99.90
7516;DHT22;3799;47.184;8.538;2023-08-07T01:20:56;13.30;99.90
7516;DHT22;3799;47.184;8.538;2023-08-07T01:23:23;13.40;99.90
7516;DHT22;3799;47.184;8.538;2023-08-07T01:25:51;13.30;99.90
7516;DHT22;3799;47.184;8.538;2023-08-07T01:28:38;13.30;99.90
7516;DHT22;3799;47.184;8.538;2023-08-07T01:31:11;13.40;99.90
7516;DHT22;3799;47.184;8.538;2023-08-07T01:34:04;13.50;99.90
7516;DHT22;3799;47.184;8.538;2023-08-07T01:36:32;13.30;99.90
7516;DHT22;3799;47.184;8.538;2023-08-07T01:39:01;13.30;99.90
7516;DHT22;3799;47.184;8.538;2023-08-07T01:41:29;13.30;99.90
7516;DHT22;3799;47.184;8.538;2023-08-07T01:43:59;13.50;99.90
7516;DHT22;3799;47.184;8.538;2023-08-07T01:46:26;13.40;99.90
7516;DHT22;3799;47.184;8.538;2023-08-07T01:48:53;13.30;99.90
7516;DHT22;3799;47.184;8.538;2023-08-07T01:51:21;13.40;99.90
7516;DHT22;3799;47.184;8.538;2023-08-07T01:53:49;13.30;99.90
7516;DHT22;3799;47.184;8.538;2023-08-07T01:56:16;13.20;99.90
7516;DHT22;3799;47.184;8.538;2023-08-07T01:58:44;13.50;99.90
7516;DHT22;3799;47.184;8.538;2023-08-07T02:01:11;13.30;99.90
7516;DHT22;3799;47.184;8.538;2023-08-07T02:03:38;13.20;99.90
7516;DHT22;3799;47.184;8.538;2023-08-07T02:06:12;13.20;99.90
7516;DHT22;3799;47.184;8.538;2023-08-07T02:08:39;13.30;99.90
7516;DHT22;3799;47.184;8.538;2023-08-07T02:11:06;13.40;99.90
7516;DHT22;3799;47.184;8.538;2023-08-07T02:13:33;13.40;99.90
7516;DHT22;3799;47.184;8.538;2023-08-07T02:16:01;13.50;99.90
7516;DHT22;3799;47.184;8.538;2023-08-07T02:18:28;13.40;99.90
7516;DHT22;3799;47.184;8.538;2023-08-07T02:20:55;13.40;99.90
7516;DHT22;3799;47.184;8.538;2023-08-07T02:23:26;13.40;99.90
7516;DHT22;3799;47.184;8.538;2023-08-07T02:25:55;13.30;99.90
7516;DHT22;3799;47.184;8.538;2023-08-07T02:28:25;13.20;99.90
7516;DHT22;3799;47.184;8.538;2023-08-07T02:30:52;13.50;99.90
7516;DHT22;3799;47.184;8.538;2023-08-07T02:33:21;13.50;99.90
7516;DHT22;3799;47.184;8.538;2023-08-07T02:35:52;13.40;99.90
7516;DHT22;3799;47.184;8.538;2023-08-07T02:38:22;13.50;99.90
7516;DHT22;3799;47.184;8.538;2023-08-07T02:40:50;13.50;99.90
7516;DHT22;3799;47.184;8.538;2023-08-07T02:43:20;13.60;99.90
7516;DHT22;3799;47.184;8.538;2023-08-07T02:45:47;13.20;99.90
7516;DHT22;3799;47.184;8.538;2023-08-07T02:48:18;13.20;99.90
7516;DHT22;3799;47.184;8.538;2023-08-07T02:50:46;13.40;99.90
7516;DHT22;3799;47.184;8.538;2023-08-07T02:53:16;13.00;99.90
7516;DHT22;3799;47.184;8.538;2023-08-07T02:55:44;13.20;99.90
7516;DHT22;3799;47.184;8.538;2023-08-07T02:58:13;13.10;99.90
7516;DHT22;3799;47.184;8.538;2023-08-07T03:00:43;13.20;99.90
7516;DHT22;3799;47.184;8.538;2023-08-07T03:03:11;12.90;99.90
7516;DHT22;3799;47.184;8.538;2023-08-07T03:05:38;13.10;99.90
7516;DHT22;3799;47.184;8.538;2023-08-07T03:08:06;13.20;99.90
7516;DHT22;3799;47.184;8.538;2023-08-07T03:10:33;12.90;99.90
7516;DHT22;3799;47.184;8.538;2023-08-07T03:13:00;13.00;99.90
7516;DHT22;3799;47.184;8.538;2023-08-07T03:15:28;13.10;99.90
7516;DHT22;3799;47.184;8.538;2023-08-07T03:17:55;13.20;99.90
7516;DHT22;3799;47.184;8.538;2023-08-07T03:20:22;13.00;99.90
7516;DHT22;3799;47.184;8.538;2023-08-07T03:22:49;12.90;99.90
7516;DHT22;3799;47.184;8.538;2023-08-07T03:25:18;13.10;99.90
7516;DHT22;3799;47.184;8.538;2023-08-07T03:27:47;12.90;99.90
7516;DHT22;3799;47.184;8.538;2023-08-07T03:30:14;13.20;99.90
7516;DHT22;3799;47.184;8.538;2023-08-07T03:32:42;13.20;99.90
7516;DHT22;3799;47.184;8.538;2023-08-07T03:35:09;12.90;99.90
7516;DHT22;3799;47.184;8.538;2023-08-07T03:37:36;13.00;99.90
7516;DHT22;3799;47.184;8.538;2023-08-07T03:40:04;13.10;99.90
7516;DHT22;3799;47.184;8.538;2023-08-07T03:42:33;13.00;99.90
7516;DHT22;3799;47.184;8.538;2023-08-07T03:45:01;12.90;99.90
7516;DHT22;3799;47.184;8.538;2023-08-07T03:47:28;13.00;99.90
7516;DHT22;3799;47.184;8.538;2023-08-07T03:49:56;12.80;99.90
7516;DHT22;3799;47.184;8.538;2023-08-07T03:52:23;12.80;99.90
7516;DHT22;3799;47.184;8.538;2023-08-07T03:54:50;12.90;99.90
7516;DHT22;3799;47.184;8.538;2023-08-07T03:57:20;13.10;99.90
7516;DHT22;3799;47.184;8.538;2023-08-07T03:59:48;13.00;99.90
7516;DHT22;3799;47.184;8.538;2023-08-07T04:02:15;13.00;99.90
7516;DHT22;3799;47.184;8.538;2023-08-07T04:04:42;13.00;99.90
7516;DHT22;3799;47.184;8.538;2023-08-07T04:07:09;12.90;99.90
7516;DHT22;3799;47.184;8.538;2023-08-07T04:09:36;12.70;99.90
7516;DHT22;3799;47.184;8.538;2023-08-07T04:12:04;12.80;99.90
7516;DHT22;3799;47.184;8.538;2023-08-07T04:14:34;12.70;99.90
7516;DHT22;3799;47.184;8.538;2023-08-07T04:17:01;12.90;99.90
7516;DHT22;3799;47.184;8.538;2023-08-07T04:19:29;12.80;99.90
7516;DHT22;3799;47.184;8.538;2023-08-07T04:21:56;12.90;99.90
7516;DHT22;3799;47.184;8.538;2023-08-07T04:24:25;12.80;99.90
7516;DHT22;3799;47.184;8.538;2023-08-07T04:26:52;13.00;99.90
7516;DHT22;3799;47.184;8.538;2023-08-07T04:29:20;13.10;99.90
7516;DHT22;3799;47.184;8.538;2023-08-07T04:31:48;13.00;99.90
7516;DHT22;3799;47.184;8.538;2023-08-07T04:34:15;13.10;99.90
7516;DHT22;3799;47.184;8.538;2023-08-07T04:36:42;13.10;99.90
7516;DHT22;3799;47.184;8.538;2023-08-07T04:39:09;12.80;99.90
7516;DHT22;3799;47.184;8.538;2023-08-07T04:41:45;13.10;99.90
7516;DHT22;3799;47.184;8.538;2023-08-07T04:44:16;12.80;99.90
7516;DHT22;3799;47.184;8.538;2023-08-07T04:46:44;13.00;99.90
7516;DHT22;3799;47.184;8.538;2023-08-07T04:49:11;12.90;99.90
7516;DHT22;3799;47.184;8.538;2023-08-07T04:51:45;13.00;99.90
7516;DHT22;3799;47.184;8.538;2023-08-07T04:54:13;13.20;99.90
7516;DHT22;3799;47.184;8.538;2023-08-07T04:56:45;13.20;99.90
7516;DHT22;3799;47.184;8.538;2023-08-07T04:59:12;13.00;99.90
7516;DHT22;3799;47.184;8.538;2023-08-07T05:01:40;13.10;99.90
7516;DHT22;3799;47.184;8.538;2023-08-07T05:04:07;13.10;99.90
7516;DHT22;3799;47.184;8.538;2023-08-07T05:06:34;12.90;99.90
7516;DHT22;3799;47.184;8.538;2023-08-07T05:09:05;13.00;99.90
7516;DHT22;3799;47.184;8.538;2023-08-07T05:11:36;13.20;99.90
7516;DHT22;3799;47.184;8.538;2023-08-07T05:14:03;13.20;99.90
7516;DHT22;3799;47.184;8.538;2023-08-07T05:16:30;13.00;99.90
7516;DHT22;3799;47.184;8.538;2023-08-07T05:19:01;13.20;99.90
7516;DHT22;3799;47.184;8.538;2023-08-07T05:21:28;12.90;99.90
7516;DHT22;3799;47.184;8.538;2023-08-07T05:23:55;13.00;99.90
7516;DHT22;3799;47.184;8.538;2023-08-07T05:26:25;13.10;99.90
7516;DHT22;3799;47.184;8.538;2023-08-07T05:28:52;13.10;99.90
7516;DHT22;3799;47.184;8.538;2023-08-07T05:31:21;13.20;99.90
7516;DHT22;3799;47.184;8.538;2023-08-07T05:33:48;13.30;99.90
7516;DHT22;3799;47.184;8.538;2023-08-07T05:36:15;13.10;99.90
7516;DHT22;3799;47.184;8.538;2023-08-07T05:38:42;13.20;99.90
7516;DHT22;3799;47.184;8.538;2023-08-07T05:41:10;13.40;99.90
7516;DHT22;3799;47.184;8.538;2023-08-07T05:43:37;13.30;99.90
7516;DHT22;3799;47.184;8.538;2023-08-07T05:46:04;13.20;99.90
7516;DHT22;3799;47.184;8.538;2023-08-07T05:48:34;13.10;99.90
7516;DHT22;3799;47.184;8.538;2023-08-07T05:51:04;13.50;99.90
7516;DHT22;3799;47.184;8.538;2023-08-07T05:53:35;13.40;99.90
7516;DHT22;3799;47.184;8.538;2023-08-07T05:56:05;13.20;99.90
7516;DHT22;3799;47.184;8.538;2023-08-07T05:58:32;13.20;99.90
7516;DHT22;3799;47.184;8.538;2023-08-07T06:00:59;13.40;99.90
7516;DHT22;3799;47.184;8.538;2023-08-07T06:03:29;13.50;99.90
7516;DHT22;3799;47.184;8.538;2023-08-07T06:05:59;13.50;99.90
7516;DHT22;3799;47.184;8.538;2023-08-07T06:08:31;13.40;99.90
7516;DHT22;3799;47.184;8.538;2023-08-07T06:10:59;13.60;99.90
7516;DHT22;3799;47.184;8.538;2023-08-07T06:13:28;13.50;99.90
7516;DHT22;3799;47.184;8.538;2023-08-07T06:16:07;13.80;99.90
7516;DHT22;3799;47.184;8.538;2023-08-07T06:18:34;13.50;99.90
7516;DHT22;3799;47.184;8.538;2023-08-07T06:21:01;13.50;99.90
7516;DHT22;3799;47.184;8.538;2023-08-07T06:23:29;13.60;99.90
7516;DHT22;3799;47.184;8.538;2023-08-07T06:26:00;13.80;99.90
7516;DHT22;3799;47.184;8.538;2023-08-07T06:28:33;13.90;99.90
7516;DHT22;3799;47.184;8.538;2023-08-07T06:31:05;13.90;99.90
7516;DHT22;3799;47.184;8.538;2023-08-07T06:33:33;13.70;99.90
7516;DHT22;3799;47.184;8.538;2023-08-07T06:36:02;13.70;99.90
7516;DHT22;3799;47.184;8.538;2023-08-07T06:38:31;14.00;99.90
7516;DHT22;3799;47.184;8.538;2023-08-07T06:40:58;14.30;99.90
7516;DHT22;3799;47.184;8.538;2023-08-07T06:43:26;14.40;99.90
7516;DHT22;3799;47.184;8.538;2023-08-07T06:45:56;14.40;99.90
7516;DHT22;3799;47.184;8.538;2023-08-07T06:48:24;14.50;99.90
7516;DHT22;3799;47.184;8.538;2023-08-07T06:50:52;14.60;99.90
7516;DHT22;3799;47.184;8.538;2023-08-07T06:53:19;14.70;99.90
7516;DHT22;3799;47.184;8.538;2023-08-07T06:55:47;14.50;99.90
7516;DHT22;3799;47.184;8.538;2023-08-07T06:58:14;15.00;99.90
7516;DHT22;3799;47.184;8.538;2023-08-07T07:00:41;14.90;99.90
7516;DHT22;3799;47.184;8.538;2023-08-07T07:03:09;14.90;99.90
7516;DHT22;3799;47.184;8.538;2023-08-07T07:05:37;15.30;99.90
7516;DHT22;3799;47.184;8.538;2023-08-07T07:08:05;15.50;99.90
7516;DHT22;3799;47.184;8.538;2023-08-07T07:10:32;15.40;99.90
7516;DHT22;3799;47.184;8.538;2023-08-07T07:13:00;15.00;99.90
7516;DHT22;3799;47.184;8.538;2023-08-07T07:15:31;15.50;99.90
7516;DHT22;3799;47.184;8.538;2023-08-07T07:18:06;15.20;99.90
7516;DHT22;3799;47.184;8.538;2023-08-07T07:20:34;15.30;99.90
7516;DHT22;3799;47.184;8.538;2023-08-07T07:23:01;15.40;99.90
7516;DHT22;3799;47.184;8.538;2023-08-07T07:25:28;15.50;99.90
7516;DHT22;3799;47.184;8.538;2023-08-07T07:27:56;15.40;99.90
7516;DHT22;3799;47.184;8.538;2023-08-07T07:30:26;15.30;99.90
7516;DHT22;3799;47.184;8.538;2023-08-07T07:32:58;15.60;99.90
7516;DHT22;3799;47.184;8.538;2023-08-07T07:35:25;15.50;99.90
7516;DHT22;3799;47.184;8.538;2023-08-07T07:37:53;15.70;99.90
7516;DHT22;3799;47.184;8.538;2023-08-07T07:40:20;15.60;99.60
7516;DHT22;3799;47.184;8.538;2023-08-07T07:42:48;15.80;99.50
7516;DHT22;3799;47.184;8.538;2023-08-07T07:45:15;15.80;99.90
7516;DHT22;3799;47.184;8.538;2023-08-07T07:47:45;15.60;99.90
7516;DHT22;3799;47.184;8.538;2023-08-07T07:50:13;16.00;99.90
7516;DHT22;3799;47.184;8.538;2023-08-07T07:52:41;15.80;99.90
7516;DHT22;3799;47.184;8.538;2023-08-07T07:55:08;15.90;99.90
7516;DHT22;3799;47.184;8.538;2023-08-07T07:57:36;15.90;99.40
7516;DHT22;3799;47.184;8.538;2023-08-07T08:00:04;15.40;99.30
7516;DHT22;3799;47.184;8.538;2023-08-07T08:02:34;15.90;97.90
7516;DHT22;3799;47.184;8.538;2023-08-07T08:05:04;15.40;96.60
7516;DHT22;3799;47.184;8.538;2023-08-07T08:07:33;15.60;96.00
7516;DHT22;3799;47.184;8.538;2023-08-07T08:10:03;15.60;95.50
7516;DHT22;3799;47.184;8.538;2023-08-07T08:12:31;15.50;95.10
7516;DHT22;3799;47.184;8.538;2023-08-07T08:15:03;15.30;94.80
7516;DHT22;3799;47.184;8.538;2023-08-07T08:17:34;15.40;95.40
7516;DHT22;3799;47.184;8.538;2023-08-07T08:20:01;15.50;95.80
7516;DHT22;3799;47.184;8.538;2023-08-07T08:22:31;15.20;96.40
7516;DHT22;3799;47.184;8.538;2023-08-07T08:24:58;15.20;96.10
7516;DHT22;3799;47.184;8.538;2023-08-07T08:27:26;15.40;96.30
7516;DHT22;3799;47.184;8.538;2023-08-07T08:29:53;14.90;96.50
7516;DHT22;3799;47.184;8.538;2023-08-07T08:32:20;14.80;96.70
7516;DHT22;3799;47.184;8.538;2023-08-07T08:34:50;15.00;97.40
7516;DHT22;3799;47.184;8.538;2023-08-07T08:37:21;15.00;97.30
7516;DHT22;3799;47.184;8.538;2023-08-07T08:39:48;15.10;98.20
7516;DHT22;3799;47.184;8.538;2023-08-07T08:42:16;14.80;99.10
7516;DHT22;3799;47.184;8.538;2023-08-07T08:44:52;14.80;99.90
7516;DHT22;3799;47.184;8.538;2023-08-07T08:47:21;14.60;99.90
7516;DHT22;3799;47.184;8.538;2023-08-07T08:50:01;14.70;99.90
7516;DHT22;3799;47.184;8.538;2023-08-07T08:52:31;14.70;99.90
7516;DHT22;3799;47.184;8.538;2023-08-07T08:54:59;14.70;99.90
7516;DHT22;3799;47.184;8.538;2023-08-07T08:57:29;14.60;99.90
7516;DHT22;3799;47.184;8.538;2023-08-07T08:59:57;14.70;99.90
7516;DHT22;3799;47.184;8.538;2023-08-07T09:02:25;14.60;99.90
7516;DHT22;3799;47.184;8.538;2023-08-07T09:04:52;14.70;99.90
7516;DHT22;3799;47.184;8.538;2023-08-07T09:07:20;14.80;99.90
7516;DHT22;3799;47.184;8.538;2023-08-07T09:09:47;14.80;99.90
7516;DHT22;3799;47.184;8.538;2023-08-07T09:12:26;14.90;99.90
7516;DHT22;3799;47.184;8.538;2023-08-07T09:14:58;14.90;99.90
7516;DHT22;3799;47.184;8.538;2023-08-07T09:17:29;15.00;99.90
7516;DHT22;3799;47.184;8.538;2023-08-07T09:20:00;15.10;99.90
7516;DHT22;3799;47.184;8.538;2023-08-07T09:22:27;14.80;99.90
7516;DHT22;3799;47.184;8.538;2023-08-07T09:24:55;14.80;99.90
7516;DHT22;3799;47.184;8.538;2023-08-07T09:27:24;14.80;99.90
7516;DHT22;3799;47.184;8.538;2023-08-07T09:29:51;15.10;99.90
7516;DHT22;3799;47.184;8.538;2023-08-07T09:32:21;15.50;99.90
7516;DHT22;3799;47.184;8.538;2023-08-07T09:34:51;15.60;99.90
7516;DHT22;3799;47.184;8.538;2023-08-07T09:37:18;16.10;99.90
7516;DHT22;3799;47.184;8.538;2023-08-07T09:39:46;16.10;99.90
7516;DHT22;3799;47.184;8.538;2023-08-07T09:42:15;16.70;99.90
7516;DHT22;3799;47.184;8.538;2023-08-07T09:44:43;16.90;99.90
7516;DHT22;3799;47.184;8.538;2023-08-07T09:47:13;17.10;99.90
7516;DHT22;3799;47.184;8.538;2023-08-07T09:49:41;17.60;99.30
7516;DHT22;3799;47.184;8.538;2023-08-07T09:52:12;17.50;99.20
7516;DHT22;3799;47.184;8.538;2023-08-07T09:54:42;17.30;97.30
7516;DHT22;3799;47.184;8.538;2023-08-07T09:57:09;17.30;96.20
7516;DHT22;3799;47.184;8.538;2023-08-07T09:59:36;17.20;95.80
7516;DHT22;3799;47.184;8.538;2023-08-07T10:02:04;17.20;96.00
7516;DHT22;3799;47.184;8.538;2023-08-07T10:04:33;17.10;95.00
7516;DHT22;3799;47.184;8.538;2023-08-07T10:07:01;17.10;96.00
7516;DHT22;3799;47.184;8.538;2023-08-07T10:09:29;17.30;95.80
7516;DHT22;3799;47.184;8.538;2023-08-07T10:11:58;17.60;94.70
7516;DHT22;3799;47.184;8.538;2023-08-07T10:14:26;17.50;94.70
7516;DHT22;3799;47.184;8.538;2023-08-07T10:16:54;17.80;94.50
7516;DHT22;3799;47.184;8.538;2023-08-07T10:19:22;17.50;92.80
7516;DHT22;3799;47.184;8.538;2023-08-07T10:21:50;17.90;92.30
7516;DHT22;3799;47.184;8.538;2023-08-07T10:24:18;18.20;94.40
7516;DHT22;3799;47.184;8.538;2023-08-07T10:26:49;18.40;89.90
7516;DHT22;3799;47.184;8.538;2023-08-07T10:29:19;18.80;84.20
7516;DHT22;3799;47.184;8.538;2023-08-07T10:31:48;18.60;83.70
7516;DHT22;3799;47.184;8.538;2023-08-07T10:34:17;18.60;82.00
7516;DHT22;3799;47.184;8.538;2023-08-07T10:36:44;18.70;82.10
7516;DHT22;3799;47.184;8.538;2023-08-07T10:39:12;18.70;78.30
7516;DHT22;3799;47.184;8.538;2023-08-07T10:41:45;18.70;75.80
7516;DHT22;3799;47.184;8.538;2023-08-07T10:44:24;18.70;75.60
7516;DHT22;3799;47.184;8.538;2023-08-07T10:46:54;19.10;74.60
7516;DHT22;3799;47.184;8.538;2023-08-07T10:49:37;19.10;77.30
7516;DHT22;3799;47.184;8.538;2023-08-07T10:52:11;19.30;76.40
7516;DHT22;3799;47.184;8.538;2023-08-07T10:57:11;19.10;73.10
7516;DHT22;3799;47.184;8.538;2023-08-07T11:02:26;19.20;73.20
7516;DHT22;3799;47.184;8.538;2023-08-07T11:04:56;19.10;73.60
7516;DHT22;3799;47.184;8.538;2023-08-07T11:07:27;19.50;71.90
7516;DHT22;3799;47.184;8.538;2023-08-07T11:09:56;19.40;71.30
7516;DHT22;3799;47.184;8.538;2023-08-07T11:12:30;19.70;72.20
7516;DHT22;3799;47.184;8.538;2023-08-07T11:15:00;19.70;66.70
7516;DHT22;3799;47.184;8.538;2023-08-07T11:17:28;19.60;63.90
7516;DHT22;3799;47.184;8.538;2023-08-07T11:19:56;19.20;63.10
7516;DHT22;3799;47.184;8.538;2023-08-07T11:22:23;19.00;63.40
7516;DHT22;3799;47.184;8.538;2023-08-07T11:24:51;18.90;68.60
7516;DHT22;3799;47.184;8.538;2023-08-07T11:27:22;18.60;71.90
7516;DHT22;3799;47.184;8.538;2023-08-07T11:29:50;18.40;70.00
7516;DHT22;3799;47.184;8.538;2023-08-07T11:32:20;18.20;71.20
7516;DHT22;3799;47.184;8.538;2023-08-07T11:34:51;18.00;75.40
7516;DHT22;3799;47.184;8.538;2023-08-07T11:37:19;18.50;76.20
7516;DHT22;3799;47.184;8.538;2023-08-07T11:39:46;18.10;74.00
7516;DHT22;3799;47.184;8.538;2023-08-07T11:42:17;18.60;72.90
7516;DHT22;3799;47.184;8.538;2023-08-07T11:44:45;18.90;67.50
7516;DHT22;3799;47.184;8.538;2023-08-07T11:47:12;19.10;66.00
7516;DHT22;3799;47.184;8.538;2023-08-07T11:49:40;18.60;62.70
7516;DHT22;3799;47.184;8.538;2023-08-07T11:52:07;18.60;64.80
7516;DHT22;3799;47.184;8.538;2023-08-07T11:54:35;18.50;68.20
7516;DHT22;3799;47.184;8.538;2023-08-07T11:57:03;18.40;66.10
7516;DHT22;3799;47.184;8.538;2023-08-07T11:59:31;18.10;65.80
7516;DHT22;3799;47.184;8.538;2023-08-07T12:02:09;18.30;70.20
7516;DHT22;3799;47.184;8.538;2023-08-07T12:04:38;18.00;72.10
7516;DHT22;3799;47.184;8.538;2023-08-07T12:07:10;18.00;69.30
7516;DHT22;3799;47.184;8.538;2023-08-07T12:09:38;18.30;71.10
7516;DHT22;3799;47.184;8.538;2023-08-07T12:12:06;18.40;75.40
7516;DHT22;3799;47.184;8.538;2023-08-07T12:14:34;18.10;73.80
7516;DHT22;3799;47.184;8.538;2023-08-07T12:17:02;18.50;70.90
7516;DHT22;3799;47.184;8.538;2023-08-07T12:19:39;18.40;72.80
7516;DHT22;3799;47.184;8.538;2023-08-07T12:22:11;18.40;70.80
7516;DHT22;3799;47.184;8.538;2023-08-07T12:24:40;18.50;70.70
7516;DHT22;3799;47.184;8.538;2023-08-07T12:27:08;18.70;68.90
7516;DHT22;3799;47.184;8.538;2023-08-07T12:29:36;18.90;68.00
7516;DHT22;3799;47.184;8.538;2023-08-07T12:32:04;19.20;67.00
7516;DHT22;3799;47.184;8.538;2023-08-07T12:34:31;19.80;65.60
7516;DHT22;3799;47.184;8.538;2023-08-07T12:37:05;20.30;61.10
7516;DHT22;3799;47.184;8.538;2023-08-07T12:39:34;20.80;59.30
7516;DHT22;3799;47.184;8.538;2023-08-07T12:42:05;21.00;57.80
7516;DHT22;3799;47.184;8.538;2023-08-07T12:44:39;20.90;57.30
7516;DHT22;3799;47.184;8.538;2023-08-07T12:47:12;20.60;57.20
7516;DHT22;3799;47.184;8.538;2023-08-07T12:49:39;20.20;57.50
7516;DHT22;3799;47.184;8.538;2023-08-07T12:52:07;19.60;57.90
7516;DHT22;3799;47.184;8.538;2023-08-07T12:54:34;19.60;58.30
7516;DHT22;3799;47.184;8.538;2023-08-07T12:57:02;19.30;58.80
7516;DHT22;3799;47.184;8.538;2023-08-07T12:59:29;18.90;61.70
7516;DHT22;3799;47.184;8.538;2023-08-07T13:01:57;18.70;64.80
7516;DHT22;3799;47.184;8.538;2023-08-07T13:04:26;18.60;66.10
7516;DHT22;3799;47.184;8.538;2023-08-07T13:06:54;18.60;68.80
7516;DHT22;3799;47.184;8.538;2023-08-07T13:09:22;18.50;69.20
7516;DHT22;3799;47.184;8.538;2023-08-07T13:11:52;18.50;72.30
7516;DHT22;3799;47.184;8.538;2023-08-07T13:14:23;18.70;72.20
7516;DHT22;3799;47.184;8.538;2023-08-07T13:16:52;19.20;72.40
7516;DHT22;3799;47.184;8.538;2023-08-07T13:19:20;19.70;71.50
7516;DHT22;3799;47.184;8.538;2023-08-07T13:21:48;20.40;66.60
7516;DHT22;3799;47.184;8.538;2023-08-07T13:24:16;21.10;62.80
7516;DHT22;3799;47.184;8.538;2023-08-07T13:26:48;21.50;58.20
7516;DHT22;3799;47.184;8.538;2023-08-07T13:29:15;21.90;57.70
7516;DHT22;3799;47.184;8.538;2023-08-07T13:31:51;22.40;56.80
7516;DHT22;3799;47.184;8.538;2023-08-07T13:34:18;22.60;55.40
7516;DHT22;3799;47.184;8.538;2023-08-07T13:36:46;22.90;55.60
7516;DHT22;3799;47.184;8.538;2023-08-07T13:39:15;23.20;54.80
7516;DHT22;3799;47.184;8.538;2023-08-07T13:41:44;23.40;53.70
7516;DHT22;3799;47.184;8.538;2023-08-07T13:44:11;23.60;53.70
7516;DHT22;3799;47.184;8.538;2023-08-07T13:46:42;23.60;52.60
7516;DHT22;3799;47.184;8.538;2023-08-07T13:49:11;23.50;52.10
7516;DHT22;3799;47.184;8.538;2023-08-07T13:51:45;23.30;53.10
7516;DHT22;3799;47.184;8.538;2023-08-07T13:54:12;23.10;52.50
7516;DHT22;3799;47.184;8.538;2023-08-07T13:56:39;23.00;52.50
7516;DHT22;3799;47.184;8.538;2023-08-07T13:59:07;23.00;52.50
7516;DHT22;3799;47.184;8.538;2023-08-07T14:01:36;23.30;51.90
7516;DHT22;3799;47.184;8.538;2023-08-07T14:04:03;23.50;51.40
7516;DHT22;3799;47.184;8.538;2023-08-07T14:06:31;23.60;51.60
7516;DHT22;3799;47.184;8.538;2023-08-07T14:08:58;23.30;51.50
7516;DHT22;3799;47.184;8.538;2023-08-07T14:11:25;22.60;51.10
7516;DHT22;3799;47.184;8.538;2023-08-07T14:14:01;22.00;52.00
7516;DHT22;3799;47.184;8.538;2023-08-07T14:16:31;21.50;52.50
7516;DHT22;3799;47.184;8.538;2023-08-07T14:18:58;21.00;52.20
7516;DHT22;3799;47.184;8.538;2023-08-07T14:21:29;20.70;52.70
7516;DHT22;3799;47.184;8.538;2023-08-07T14:23:56;20.50;53.20
7516;DHT22;3799;47.184;8.538;2023-08-07T14:26:23;20.30;53.50
7516;DHT22;3799;47.184;8.538;2023-08-07T14:28:51;20.10;53.70
7516;DHT22;3799;47.184;8.538;2023-08-07T14:31:18;19.90;54.60
7516;DHT22;3799;47.184;8.538;2023-08-07T14:33:46;19.80;55.20
7516;DHT22;3799;47.184;8.538;2023-08-07T14:36:17;19.50;55.50
7516;DHT22;3799;47.184;8.538;2023-08-07T14:38:45;19.60;55.70
7516;DHT22;3799;47.184;8.538;2023-08-07T14:41:12;19.10;56.00
7516;DHT22;3799;47.184;8.538;2023-08-07T14:43:39;19.10;56.60
7516;DHT22;3799;47.184;8.538;2023-08-07T14:46:07;18.80;56.60
7516;DHT22;3799;47.184;8.538;2023-08-07T14:48:34;18.90;57.30
7516;DHT22;3799;47.184;8.538;2023-08-07T14:51:02;18.80;57.70
7516;DHT22;3799;47.184;8.538;2023-08-07T14:53:29;18.90;58.10
7516;DHT22;3799;47.184;8.538;2023-08-07T14:55:57;18.60;57.70
7516;DHT22;3799;47.184;8.538;2023-08-07T14:58:24;18.60;57.40
7516;DHT22;3799;47.184;8.538;2023-08-07T15:01:00;18.70;57.50
7516;DHT22;3799;47.184;8.538;2023-08-07T15:03:28;18.70;57.30
7516;DHT22;3799;47.184;8.538;2023-08-07T15:05:55;18.90;58.10
7516;DHT22;3799;47.184;8.538;2023-08-07T15:08:24;18.90;57.60
7516;DHT22;3799;47.184;8.538;2023-08-07T15:10:55;18.80;57.70
7516;DHT22;3799;47.184;8.538;2023-08-07T15:13:22;18.80;57.50
7516;DHT22;3799;47.184;8.538;2023-08-07T15:15:52;19.20;58.30
7516;DHT22;3799;47.184;8.538;2023-08-07T15:18:19;19.10;57.70
7516;DHT22;3799;47.184;8.538;2023-08-07T15:20:48;19.00;57.50
7516;DHT22;3799;47.184;8.538;2023-08-07T15:23:16;19.00;57.90
7516;DHT22;3799;47.184;8.538;2023-08-07T15:25:43;19.10;57.90
7516;DHT22;3799;47.184;8.538;2023-08-07T15:28:11;19.30;57.60
7516;DHT22;3799;47.184;8.538;2023-08-07T15:30:38;19.40;58.10
7516;DHT22;3799;47.184;8.538;2023-08-07T15:33:06;19.20;58.20
7516;DHT22;3799;47.184;8.538;2023-08-07T15:35:33;19.00;58.30
7516;DHT22;3799;47.184;8.538;2023-08-07T15:38:01;18.90;58.90
7516;DHT22;3799;47.184;8.538;2023-08-07T15:40:28;18.60;58.80
7516;DHT22;3799;47.184;8.538;2023-08-07T15:42:56;18.70;59.40
7516;DHT22;3799;47.184;8.538;2023-08-07T15:45:25;18.80;59.90
7516;DHT22;3799;47.184;8.538;2023-08-07T15:47:54;18.50;60.20
7516;DHT22;3799;47.184;8.538;2023-08-07T15:50:21;18.10;61.50
7516;DHT22;3799;47.184;8.538;2023-08-07T15:52:49;18.10;62.10
7516;DHT22;3799;47.184;8.538;2023-08-07T15:55:18;18.10;64.10
7516;DHT22;3799;47.184;8.538;2023-08-07T15:57:45;18.30;64.40
7516;DHT22;3799;47.184;8.538;2023-08-07T16:00:16;18.00;65.10
7516;DHT22;3799;47.184;8.538;2023-08-07T16:02:43;18.00;65.40
7516;DHT22;3799;47.184;8.538;2023-08-07T16:05:11;17.80;65.00
7516;DHT22;3799;47.184;8.538;2023-08-07T16:07:38;18.10;66.40
7516;DHT22;3799;47.184;8.538;2023-08-07T16:10:06;17.80;65.80
7516;DHT22;3799;47.184;8.538;2023-08-07T16:12:34;17.70;65.30
7516;DHT22;3799;47.184;8.538;2023-08-07T16:15:01;17.70;65.40
7516;DHT22;3799;47.184;8.538;2023-08-07T16:17:29;17.70;65.30